Time;durP1;ratioP1;P1;durP2;ratioP2;P2;SDS_P1;SDS_P2;PMS_P1;PMS_P2;Temp;Humidity;BMP_temperature;BMP_pressure;BME280_temperature;BME280_humidity;BME280_pressure;Samples;Min_cycle;Max_cycle;Signal;HPM_P1;HPM_P2
2021/01/24 00:01:02;;;;;;;;;4.50;4.00;;;;;12.84;47.22;96468.03;4829898;28;102981;-80
2021/01/24 00:03:32;;;;;;;;;4.50;4.00;;;;;12.85;47.24;96482.44;4838713;28;104130;-80
2021/01/24 00:06:07;;;;;;;;;2.00;2.00;;;;;12.84;47.47;96483.50;4842236;28;102959;-80
2021/01/24 00:08:36;;;;;;;;;3.50;2.00;;;;;12.84;47.42;96475.38;4836473;28;103222;-80
2021/01/24 00:11:04;;;;;;;;;4.00;3.00;;;;;12.83;47.16;96477.25;4837276;28;103090;-80
2021/01/24 00:13:32;;;;;;;;;4.00;3.00;;;;;12.83;47.22;96474.53;4826865;28;103593;-80
2021/01/24 00:15:59;;;;;;;;;4.50;3.25;;;;;12.83;47.10;96468.34;4823305;28;102880;-80
2021/01/24 00:18:26;;;;;;;;;3.00;3.00;;;;;12.83;47.33;96460.19;4817170;28;102906;-79
2021/01/24 00:20:54;;;;;;;;;6.25;3.50;;;;;12.83;46.94;96457.47;4822367;28;103208;-80
2021/01/24 00:23:21;;;;;;;;;4.75;3.00;;;;;12.83;47.08;96452.06;4844700;28;110957;-80
2021/01/24 00:25:48;;;;;;;;;3.25;2.75;;;;;12.82;47.34;96450.44;4833706;28;102866;-80
2021/01/24 00:28:20;;;;;;;;;3.50;2.50;;;;;12.83;46.72;96452.06;4810278;28;102863;-81
2021/01/24 00:30:47;;;;;;;;;3.00;2.00;;;;;12.83;47.45;96457.47;4853528;28;103168;-80
2021/01/24 00:33:14;;;;;;;;;4.75;3.00;;;;;12.82;47.48;96445.81;4844400;28;103907;-80
2021/01/24 00:35:40;;;;;;;;;4.00;4.00;;;;;12.82;46.96;96442.28;4821329;28;104252;-80
2021/01/24 00:38:07;;;;;;;;;3.00;2.00;;;;;12.82;47.29;96439.56;4822082;28;103625;-80
2021/01/24 00:40:34;;;;;;;;;4.25;3.25;;;;;12.81;47.07;96432.50;4816966;28;103078;-80
2021/01/24 00:43:00;;;;;;;;;5.25;2.75;;;;;12.79;47.01;96423.81;4816326;28;104663;-80
2021/01/24 00:45:27;;;;;;;;;3.75;3.50;;;;;12.82;47.06;96423.31;4822301;28;102900;-80
2021/01/24 00:47:54;;;;;;;;;4.25;3.00;;;;;12.81;47.12;96425.19;4821744;28;103872;-80
2021/01/24 00:50:21;;;;;;;;;4.50;3.00;;;;;12.82;47.55;96428.72;4811623;28;104427;-80
2021/01/24 00:52:48;;;;;;;;;3.00;3.00;;;;;12.82;46.87;96423.31;4825320;28;103922;-80
2021/01/24 00:55:14;;;;;;;;;2.50;2.50;;;;;12.82;46.97;96431.44;4817555;28;102840;-80
2021/01/24 00:57:41;;;;;;;;;3.50;3.00;;;;;12.80;47.09;96420.84;4815426;28;105010;-80
2021/01/24 01:00:08;;;;;;;;;4.75;4.00;;;;;12.80;46.86;96411.91;4823343;28;103564;-80
2021/01/24 01:02:35;;;;;;;;;4.00;3.00;;;;;12.80;47.49;96411.91;4809994;28;104034;-80
2021/01/24 01:05:02;;;;;;;;;3.00;3.00;;;;;12.81;46.95;96405.41;4831942;28;103988;-80
2021/01/24 01:07:30;;;;;;;;;4.00;3.00;;;;;12.80;47.46;96401.06;4831499;28;102820;-80
2021/01/24 01:09:56;;;;;;;;;2.25;2.25;;;;;12.80;47.76;96398.34;4825518;28;104523;-80
2021/01/24 01:12:23;;;;;;;;;3.00;2.25;;;;;12.81;46.57;96402.69;4805099;28;104707;-80
2021/01/24 01:14:50;;;;;;;;;4.00;3.00;;;;;12.80;47.60;96398.34;4818742;28;104087;-80
2021/01/24 01:17:17;;;;;;;;;3.50;2.25;;;;;12.79;47.38;96391.28;4821891;28;102929;-80
2021/01/24 01:19:44;;;;;;;;;3.50;3.50;;;;;12.80;46.87;96403.75;4816431;28;104577;-80
2021/01/24 01:22:10;;;;;;;;;5.25;4.00;;;;;12.77;47.18;96401.59;4817045;28;104112;-80
2021/01/24 01:24:37;;;;;;;;;2.25;2.00;;;;;12.79;46.82;96392.09;4822134;28;102963;-80
2021/01/24 01:27:04;;;;;;;;;3.75;3.00;;;;;12.79;46.88;96394.81;4808470;28;102995;-80
2021/01/24 01:29:30;;;;;;;;;3.25;2.75;;;;;12.80;47.49;96395.63;4824839;28;103040;-80
2021/01/24 01:31:57;;;;;;;;;3.50;3.00;;;;;12.79;47.17;96388.56;4825743;28;104761;-80
2021/01/24 01:34:24;;;;;;;;;4.00;3.50;;;;;12.78;47.09;96389.66;4830178;28;102867;-80
2021/01/24 01:36:51;;;;;;;;;4.50;3.00;;;;;12.78;47.15;96389.66;4828138;28;104595;-80
2021/01/24 01:39:17;;;;;;;;;2.75;2.25;;;;;12.79;47.48;96377.72;4809084;28;102956;-80
2021/01/24 01:41:44;;;;;;;;;3.00;3.00;;;;;12.78;46.59;96373.41;4819402;28;104126;-80
2021/01/24 01:44:11;;;;;;;;;3.25;2.75;;;;;12.79;46.75;96364.97;4842471;28;103311;-80
2021/01/24 01:46:37;;;;;;;;;3.00;3.00;;;;;12.78;46.82;96367.97;4825799;28;102939;-80
2021/01/24 01:49:04;;;;;;;;;4.25;4.00;;;;;12.78;47.22;96370.69;4838946;28;103201;-80
2021/01/24 01:51:31;;;;;;;;;2.00;2.00;;;;;12.77;47.31;96378.00;4821792;28;103495;-80
2021/01/24 01:53:58;;;;;;;;;4.75;4.25;;;;;12.77;46.79;96377.19;4842607;28;103788;-79
2021/01/24 01:56:24;;;;;;;;;3.25;3.25;;;;;12.77;46.51;96377.19;4823272;28;102981;-80
2021/01/24 01:58:51;;;;;;;;;3.50;3.00;;;;;12.75;47.40;96377.44;4836639;28;103308;-80
2021/01/24 02:01:25;;;;;;;;;3.25;3.25;;;;;12.76;47.22;96378.25;4841613;28;104050;-80
2021/01/24 02:04:02;;;;;;;;;6.00;2.00;;;;;12.74;47.39;96375.03;4820018;28;104866;-80
2021/01/24 02:06:38;;;;;;;;;2.00;1.00;;;;;12.76;46.86;96373.66;4824721;28;103663;-80
2021/01/24 02:09:35;;;;;;;;;3.25;3.00;;;;;12.76;46.70;96360.09;4815603;28;103330;-79
2021/01/24 02:12:17;;;;;;;;;3.00;2.00;;;;;12.76;47.47;96357.38;4761699;28;108757;-79
2021/01/24 02:15:00;;;;;;;;;4.00;3.00;;;;;12.76;47.21;96348.44;4831203;28;102908;-80
2021/01/24 02:17:32;;;;;;;;;3.00;3.00;;;;;12.76;47.64;96345.72;4836167;28;103613;-80
2021/01/24 02:20:06;;;;;;;;;3.00;2.00;;;;;12.75;46.78;96341.38;4811283;28;104608;-80
2021/01/24 02:22:38;;;;;;;;;2.75;2.75;;;;;12.76;46.83;96343.00;4822404;28;104425;-80
2021/01/24 02:25:27;;;;;;;;;3.25;3.00;;;;;12.76;47.11;96313.19;4810844;28;103809;-80
2021/01/24 02:28:18;;;;;;;;;3.00;2.50;;;;;12.75;47.00;96322.41;4839137;28;103027;-80
2021/01/24 02:30:47;;;;;;;;;3.50;2.00;;;;;12.75;47.30;96328.63;4749737;28;103728;-80
2021/01/24 02:33:18;;;;;;;;;2.25;2.25;;;;;12.75;47.05;96327.81;4826948;28;104168;-80
2021/01/24 02:35:57;;;;;;;;;3.75;3.00;;;;;12.74;46.91;96335.13;4821792;28;104157;-80
2021/01/24 02:38:27;;;;;;;;;3.00;2.00;;;;;12.75;47.50;96341.38;4799892;28;103037;-80
2021/01/24 02:40:55;;;;;;;;;4.00;3.25;;;;;12.76;47.39;96348.44;4820477;28;104535;-80
2021/01/24 02:43:24;;;;;;;;;3.00;3.00;;;;;12.75;47.09;96335.97;4830134;28;103871;-80
2021/01/24 02:45:53;;;;;;;;;2.50;2.00;;;;;12.74;46.92;96339.78;4816936;28;103165;-80
2021/01/24 02:48:21;;;;;;;;;2.25;2.00;;;;;12.72;47.17;96337.31;4829304;28;104707;-80
2021/01/24 02:50:47;;;;;;;;;3.50;2.50;;;;;12.74;46.77;96331.63;4818886;28;103224;-80
2021/01/24 02:53:15;;;;;;;;;3.00;3.00;;;;;12.74;46.42;96339.78;4797123;28;104023;-80
2021/01/24 02:55:42;;;;;;;;;3.50;2.50;;;;;12.73;47.07;96343.56;4822076;28;103170;-80
2021/01/24 02:58:09;;;;;;;;;3.00;3.00;;;;;12.75;46.43;96346.81;4800001;28;104087;-80
2021/01/24 03:00:35;;;;;;;;;3.00;2.00;;;;;12.72;47.18;96348.16;4829787;28;102968;-80
2021/01/24 03:03:02;;;;;;;;;4.00;3.00;;;;;12.72;46.54;96339.22;4823165;28;104528;-79
2021/01/24 03:05:29;;;;;;;;;4.75;2.25;;;;;12.72;46.65;96352.78;4819326;28;104545;-80
2021/01/24 03:07:56;;;;;;;;;2.25;2.25;;;;;12.73;46.86;96347.09;4812399;28;103277;-80
2021/01/24 03:10:22;;;;;;;;;3.75;3.00;;;;;12.72;47.13;96336.50;4818347;28;104934;-80
2021/01/24 03:13:09;;;;;;;;;4.00;3.00;;;;;12.72;46.87;96339.22;4818165;28;104832;-80
2021/01/24 03:15:36;;;;;;;;;3.00;3.00;;;;;12.73;47.05;96328.13;4747444;28;102881;-80
2021/01/24 03:18:03;;;;;;;;;5.75;3.00;;;;;12.73;46.41;96321.88;4817853;28;104665;-80
2021/01/24 03:20:33;;;;;;;;;2.50;2.50;;;;;12.72;46.39;96317.53;4821129;28;102937;-79
2021/01/24 03:23:01;;;;;;;;;2.75;2.00;;;;;12.71;46.97;96319.41;4823397;28;104013;-80
2021/01/24 03:25:27;;;;;;;;;3.50;3.00;;;;;12.72;46.72;96322.94;4801542;28;103030;-80
2021/01/24 03:27:54;;;;;;;;;3.00;3.00;;;;;12.71;46.63;96318.59;4820160;28;104701;-80
2021/01/24 03:30:21;;;;;;;;;4.00;3.00;;;;;12.71;47.12;96321.31;4821365;28;103532;-80
2021/01/24 03:32:48;;;;;;;;;4.50;2.50;;;;;12.70;46.66;96312.38;4819260;28;104089;-80
2021/01/24 03:35:15;;;;;;;;;2.75;2.75;;;;;12.71;46.75;96310.47;4824740;28;103709;-80
2021/01/24 03:37:42;;;;;;;;;3.75;2.25;;;;;12.70;47.35;96312.38;4824226;28;102933;-80
2021/01/24 03:40:09;;;;;;;;;4.00;3.00;;;;;12.71;47.39;96310.47;4823662;28;103085;-80
2021/01/24 03:42:35;;;;;;;;;3.00;2.75;;;;;12.71;46.82;96308.56;4823191;28;104301;-79
2021/01/24 03:45:03;;;;;;;;;3.25;3.25;;;;;12.69;46.75;96299.91;4821782;28;102802;-80
2021/01/24 03:47:31;;;;;;;;;3.75;3.00;;;;;12.70;46.68;96300.72;4820917;28;102943;-80
2021/01/24 03:49:57;;;;;;;;;1.50;1.50;;;;;12.70;46.89;96295.31;4835394;28;103931;-80
2021/01/24 03:52:24;;;;;;;;;3.00;3.00;;;;;12.69;47.16;96297.19;4818347;28;108503;-80
2021/01/24 03:54:51;;;;;;;;;3.00;2.00;;;;;12.70;47.18;96290.66;4823830;28;104732;-80
2021/01/24 03:57:17;;;;;;;;;2.00;2.00;;;;;12.69;47.37;96299.91;4823417;28;103504;-80
2021/01/24 03:59:49;;;;;;;;;5.00;3.25;;;;;12.69;47.31;96293.69;4819420;28;103560;-80
2021/01/24 04:02:17;;;;;;;;;2.00;2.00;;;;;12.70;47.14;96289.88;4826584;28;104060;-80
2021/01/24 04:04:44;;;;;;;;;3.00;2.25;;;;;12.69;46.39;96288.25;4831363;28;103024;-80
2021/01/24 04:07:11;;;;;;;;;2.00;2.00;;;;;12.70;46.96;96287.19;4820280;28;102866;-80
2021/01/24 04:09:38;;;;;;;;;2.50;2.25;;;;;12.69;47.13;96288.25;4833919;28;102941;-80
2021/01/24 04:12:05;;;;;;;;;4.25;2.00;;;;;12.68;46.71;96281.19;4820169;28;105744;-80
2021/01/24 04:14:32;;;;;;;;;2.00;1.25;;;;;12.68;47.30;96273.06;4827284;28;104769;-80
2021/01/24 04:16:59;;;;;;;;;4.00;4.00;;;;;12.69;46.50;96277.41;4832514;28;103023;-80
2021/01/24 04:19:26;;;;;;;;;3.00;2.25;;;;;12.69;46.80;96261.13;4829418;28;103164;-80
2021/01/24 04:21:52;;;;;;;;;2.00;2.00;;;;;12.68;46.64;96254.91;4828436;28;104057;-80
2021/01/24 04:24:19;;;;;;;;;2.00;2.00;;;;;12.69;47.19;96250.28;4831152;28;102874;-80
2021/01/24 04:26:46;;;;;;;;;3.00;2.00;;;;;12.68;46.75;96256.78;4825717;28;102827;-80
2021/01/24 04:29:12;;;;;;;;;3.00;3.00;;;;;12.67;46.91;96252.44;4829736;28;103035;-80
2021/01/24 04:31:39;;;;;;;;;4.00;3.00;;;;;12.68;46.82;96251.38;4829105;28;104474;-80
2021/01/24 04:34:06;;;;;;;;;3.00;2.25;;;;;12.67;46.60;96244.31;4831454;28;102862;-80
2021/01/24 04:36:33;;;;;;;;;2.00;2.00;;;;;12.67;47.31;96247.03;4848988;28;103956;-80
2021/01/24 04:39:03;;;;;;;;;4.75;3.00;;;;;12.66;46.50;96253.53;4846525;28;104486;-80
2021/01/24 04:41:30;;;;;;;;;2.25;2.00;;;;;12.66;46.72;96245.38;4815734;28;104018;-79
2021/01/24 04:43:57;;;;;;;;;2.75;2.75;;;;;12.66;47.12;96239.97;4853332;28;102794;-80
2021/01/24 04:46:24;;;;;;;;;2.75;2.00;;;;;12.67;46.63;96230.75;4827580;28;105171;-80
2021/01/24 04:48:50;;;;;;;;;2.50;1.75;;;;;12.66;47.10;96231.84;4836127;28;103231;-80
2021/01/24 04:51:17;;;;;;;;;5.50;3.00;;;;;12.66;47.10;96229.94;4828844;28;104068;-80
2021/01/24 04:53:44;;;;;;;;;4.00;3.50;;;;;12.66;46.82;96229.13;4847153;28;103130;-80
2021/01/24 04:56:10;;;;;;;;;3.00;2.25;;;;;12.66;46.57;96227.22;4833135;28;102885;-80
2021/01/24 04:58:37;;;;;;;;;2.50;2.50;;;;;12.65;46.32;96211.25;4832787;28;104150;-79
2021/01/24 05:01:04;;;;;;;;;2.00;2.00;;;;;12.65;46.90;96213.97;4848265;28;104625;-80
2021/01/24 05:03:31;;;;;;;;;2.25;2.25;;;;;12.65;46.54;96200.41;4819466;28;103081;-80
2021/01/24 05:05:58;;;;;;;;;2.75;1.25;;;;;12.65;47.02;96203.94;4848279;28;102997;-80
2021/01/24 05:08:24;;;;;;;;;3.25;2.00;;;;;12.64;47.29;96221.28;4851226;28;103012;-80
2021/01/24 05:10:54;;;;;;;;;3.00;3.00;;;;;12.65;47.45;96216.69;4849889;28;104536;-80
2021/01/24 05:13:25;;;;;;;;;3.75;3.00;;;;;12.64;46.72;96215.03;4843192;28;102917;-80
2021/01/24 05:15:54;;;;;;;;;3.00;2.00;;;;;12.63;47.46;96208.00;4844797;28;104511;-80
2021/01/24 05:18:22;;;;;;;;;3.00;3.00;;;;;12.63;47.05;96214.22;4829861;28;102952;-80
2021/01/24 05:20:51;;;;;;;;;4.00;2.50;;;;;12.64;47.23;96215.03;4847130;28;104028;-80
2021/01/24 05:23:22;;;;;;;;;2.25;1.25;;;;;12.62;46.62;96206.34;4831509;28;102765;-80
2021/01/24 05:25:49;;;;;;;;;2.50;2.00;;;;;12.63;47.18;96199.84;4836962;28;103792;-80
2021/01/24 05:28:18;;;;;;;;;3.25;2.00;;;;;12.64;47.20;96210.44;4845175;28;102888;-80
2021/01/24 05:30:44;;;;;;;;;2.50;2.00;;;;;12.63;46.47;96208.00;4835594;28;103979;-80
2021/01/24 05:33:12;;;;;;;;;5.00;3.00;;;;;12.64;47.08;96204.19;4838893;28;103000;-79
2021/01/24 05:35:49;;;;;;;;;3.25;3.00;;;;;12.63;46.72;96191.72;4827136;28;103867;-80
2021/01/24 05:38:36;;;;;;;;;1.25;1.25;;;;;12.63;46.95;96191.72;4826197;28;104054;-79
2021/01/24 05:41:07;;;;;;;;;4.50;2.00;;;;;12.63;46.66;96189.00;4817230;28;109261;-80
2021/01/24 05:43:36;;;;;;;;;3.50;3.00;;;;;12.62;47.09;96195.50;4824736;28;103007;-80
2021/01/24 05:46:06;;;;;;;;;2.50;1.00;;;;;12.61;47.16;96189.28;4837841;28;103881;-80
2021/01/24 05:48:37;;;;;;;;;3.00;3.00;;;;;12.62;47.04;96190.09;4820931;28;103028;-80
2021/01/24 05:51:06;;;;;;;;;3.00;3.00;;;;;12.62;47.02;96190.09;4841200;28;104043;-80
2021/01/24 05:53:45;;;;;;;;;2.00;2.00;;;;;12.62;46.76;96190.09;4822136;28;103174;-80
2021/01/24 05:56:16;;;;;;;;;3.00;3.00;;;;;12.61;46.86;96185.78;4832658;28;103254;-80
2021/01/24 05:58:43;;;;;;;;;1.75;1.75;;;;;12.61;46.87;96192.00;4845807;28;102926;-79
2021/01/24 06:01:09;;;;;;;;;3.00;3.00;;;;;12.61;46.67;96188.50;4816231;28;105840;-79
2021/01/24 06:03:36;;;;;;;;;3.00;3.00;;;;;12.61;46.46;96183.84;4809242;28;104045;-80
2021/01/24 06:06:04;;;;;;;;;4.00;3.00;;;;;12.61;46.92;96166.81;4833065;28;103093;-79
2021/01/24 06:08:30;;;;;;;;;2.75;2.50;;;;;12.60;47.06;96171.41;4826554;28;103509;-80
2021/01/24 06:11:00;;;;;;;;;2.50;2.50;;;;;12.60;47.16;96159.75;4841038;28;108986;-79
2021/01/24 06:13:27;;;;;;;;;2.25;2.00;;;;;12.61;46.47;96161.38;4799444;28;104442;-80
2021/01/24 06:15:57;;;;;;;;;2.00;2.00;;;;;12.60;47.16;96162.47;4838297;28;103609;-79
2021/01/24 06:18:39;;;;;;;;;4.50;3.50;;;;;12.59;46.78;96164.34;4823473;28;102999;-79
2021/01/24 06:21:05;;;;;;;;;4.25;3.50;;;;;12.60;46.56;96178.72;4832064;28;109144;-79
2021/01/24 06:23:37;;;;;;;;;3.00;1.00;;;;;12.60;47.17;96178.72;4795445;28;103138;-79
2021/01/24 06:26:12;;;;;;;;;2.75;2.00;;;;;12.59;47.27;96179.81;4806195;28;103488;-79
2021/01/24 06:28:41;;;;;;;;;2.25;2.00;;;;;12.59;47.41;96172.50;4825116;28;102772;-79
2021/01/24 06:31:15;;;;;;;;;2.25;1.75;;;;;12.60;46.45;96170.59;4814062;28;104321;-79
2021/01/24 06:33:45;;;;;;;;;3.00;2.50;;;;;12.57;47.13;96165.69;4846076;28;103635;-80
2021/01/24 06:36:14;;;;;;;;;3.25;2.75;;;;;12.59;46.57;96160.81;4846694;28;103074;-79
2021/01/24 06:38:43;;;;;;;;;3.00;2.50;;;;;12.58;46.97;96167.31;4847642;28;104443;-79
2021/01/24 06:41:13;;;;;;;;;2.00;2.00;;;;;12.56;46.83;96159.50;4810350;28;104231;-80
2021/01/24 06:43:44;;;;;;;;;1.50;1.50;;;;;12.56;46.80;96153.25;4826951;28;103306;-80
2021/01/24 06:46:29;;;;;;;;;2.00;1.00;;;;;12.56;47.13;96158.66;4843502;28;102807;-79
2021/01/24 06:48:57;;;;;;;;;2.75;2.75;;;;;12.57;46.60;96160.28;4845839;28;102966;-80
2021/01/24 06:51:33;;;;;;;;;3.00;3.00;;;;;12.56;47.40;96155.97;4847785;28;104091;-80
2021/01/24 06:54:00;;;;;;;;;2.25;2.00;;;;;12.56;46.66;96164.09;4835206;28;102968;-80
2021/01/24 06:57:03;;;;;;;;;3.25;2.75;;;;;12.56;46.74;96164.09;4824886;28;105334;-80
2021/01/24 06:59:30;;;;;;;;;3.75;3.00;;;;;12.53;47.02;96152.69;4776819;28;102921;-80
2021/01/24 07:02:21;;;;;;;;;1.50;1.50;;;;;12.55;46.25;96179.53;4813876;28;104476;-80
2021/01/24 07:05:08;;;;;;;;;2.00;2.00;;;;;12.53;47.15;96177.09;4784195;28;103046;-80
2021/01/24 07:07:47;;;;;;;;;2.00;2.00;;;;;12.55;47.15;96181.44;4845063;28;102691;-79
2021/01/24 07:10:39;;;;;;;;;3.00;2.25;;;;;12.53;47.38;96225.88;4852050;28;102921;-80
2021/01/24 07:13:26;;;;;;;;;2.00;2.00;;;;;12.53;46.45;96263.84;4823702;28;110379;-80
2021/01/24 07:16:11;;;;;;;;;4.50;3.00;;;;;12.53;46.44;96274.69;4830850;28;105470;-79
2021/01/24 07:18:43;;;;;;;;;3.50;3.00;;;;;12.53;47.22;96280.09;4758743;28;103027;-79
2021/01/24 07:21:11;;;;;;;;;2.25;2.00;;;;;12.52;46.55;96275.75;4850780;28;102819;-80
2021/01/24 07:23:39;;;;;;;;;2.25;2.25;;;;;12.51;46.29;96273.34;4828984;28;104656;-79
2021/01/24 07:26:05;;;;;;;;;2.00;1.00;;;;;12.52;46.70;96285.78;4824555;28;102889;-79
2021/01/24 07:28:32;;;;;;;;;4.00;2.00;;;;;12.52;46.86;96272.22;4827312;28;103038;-80
2021/01/24 07:31:00;;;;;;;;;3.75;3.00;;;;;12.51;47.41;96267.91;4832618;28;105734;-80
2021/01/24 07:33:28;;;;;;;;;2.00;2.00;;;;;12.51;46.89;96278.75;4847110;28;104076;-80
2021/01/24 07:35:56;;;;;;;;;3.00;3.00;;;;;12.51;46.25;96276.88;4806446;28;104647;-80
2021/01/24 07:38:24;;;;;;;;;3.00;3.00;;;;;12.50;46.57;96269.81;4807284;28;102977;-80
2021/01/24 07:40:55;;;;;;;;;2.00;1.00;;;;;12.51;46.45;96265.19;4810598;28;103085;-80
2021/01/24 07:43:22;;;;;;;;;2.50;2.50;;;;;12.49;46.59;96272.78;4802302;28;104348;-80
2021/01/24 07:45:49;;;;;;;;;3.75;3.00;;;;;12.51;46.94;96270.63;4804849;28;103379;-80
2021/01/24 07:48:16;;;;;;;;;4.25;2.75;;;;;12.50;47.28;96275.22;4805624;28;103325;-79
2021/01/24 07:50:43;;;;;;;;;3.00;3.00;;;;;12.50;46.49;96275.22;4806933;28;102885;-79
2021/01/24 07:53:09;;;;;;;;;3.00;3.00;;;;;12.50;47.06;96274.41;4811361;28;103811;-80
2021/01/24 07:55:37;;;;;;;;;3.25;3.00;;;;;12.49;46.89;96279.00;4793077;28;104135;-79
2021/01/24 07:58:04;;;;;;;;;4.00;3.00;;;;;12.48;47.08;96271.97;4813561;28;103737;-79
2021/01/24 08:00:34;;;;;;;;;3.00;3.00;;;;;12.48;46.76;96277.38;4813499;28;102968;-80
2021/01/24 08:03:01;;;;;;;;;3.50;3.50;;;;;12.49;46.83;96291.75;4807927;28;109662;-80
2021/01/24 08:05:32;;;;;;;;;2.00;1.00;;;;;12.48;46.92;96281.97;4812481;28;103702;-80
2021/01/24 08:07:59;;;;;;;;;3.00;3.00;;;;;12.47;46.78;96283.09;4808122;28;103554;-80
2021/01/24 08:10:31;;;;;;;;;2.00;2.00;;;;;12.47;46.16;96286.59;4809484;28;103050;-80
2021/01/24 08:13:01;;;;;;;;;4.00;3.50;;;;;12.47;46.13;96297.44;4808843;28;104601;-80
2021/01/24 08:15:28;;;;;;;;;4.25;3.00;;;;;12.47;46.26;96283.09;4807680;28;102890;-80
2021/01/24 08:17:56;;;;;;;;;6.00;2.00;;;;;12.47;46.33;96286.59;4805163;28;104287;-80
2021/01/24 08:20:23;;;;;;;;;2.50;2.00;;;;;12.46;46.60;96293.13;4808691;28;103936;-80
2021/01/24 08:22:49;;;;;;;;;5.00;4.00;;;;;12.47;46.74;96285.81;4810495;28;104455;-80
2021/01/24 08:25:16;;;;;;;;;2.25;2.25;;;;;12.46;46.00;96279.56;4788158;28;102890;-80
2021/01/24 08:27:44;;;;;;;;;3.00;3.00;;;;;12.46;46.58;96274.16;4810819;28;103351;-79
2021/01/24 08:30:12;;;;;;;;;4.25;4.00;;;;;12.45;46.19;96283.34;4802974;28;104004;-79
2021/01/24 08:32:40;;;;;;;;;5.25;4.00;;;;;12.45;46.80;96277.94;4788489;28;104398;-79
2021/01/24 08:35:07;;;;;;;;;4.00;4.00;;;;;12.45;45.98;96282.53;4822174;28;104399;-79
2021/01/24 08:37:38;;;;;;;;;4.00;3.00;;;;;12.45;46.64;96282.53;4829190;28;102982;-79
2021/01/24 08:40:05;;;;;;;;;6.75;4.25;;;;;12.45;46.83;96283.34;4827323;28;103931;-79
2021/01/24 08:42:46;;;;;;;;;3.00;2.75;;;;;12.45;46.14;96277.94;4834294;28;104618;-79
2021/01/24 08:45:18;;;;;;;;;3.25;3.00;;;;;12.46;46.71;96284.16;4762160;28;103765;-79
2021/01/24 08:48:01;;;;;;;;;5.00;4.00;;;;;12.43;46.25;96277.38;4815146;28;102918;-79
2021/01/24 08:50:32;;;;;;;;;3.50;3.50;;;;;12.45;46.20;96287.94;4833865;28;103074;-79
2021/01/24 08:53:00;;;;;;;;;3.25;3.00;;;;;12.44;46.17;96292.56;4834022;28;104174;-79
2021/01/24 08:55:27;;;;;;;;;4.00;4.00;;;;;12.44;46.32;96299.88;4835508;28;103986;-80
2021/01/24 08:57:54;;;;;;;;;4.00;4.00;;;;;12.44;46.39;96297.16;4829035;28;103470;-80
2021/01/24 09:00:21;;;;;;;;;4.00;4.00;;;;;12.42;46.01;96313.72;4830682;28;103073;-78
2021/01/24 09:02:48;;;;;;;;;7.00;4.00;;;;;12.42;46.83;96316.41;4815898;28;104128;-79
2021/01/24 09:05:31;;;;;;;;;5.25;4.00;;;;;12.42;47.16;96316.41;4829280;28;103787;-79
2021/01/24 09:07:58;;;;;;;;;4.25;4.00;;;;;12.43;47.38;96323.44;4829451;28;102909;-79
2021/01/24 09:10:30;;;;;;;;;6.50;3.50;;;;;12.43;47.15;96336.19;4826813;28;105832;-78
2021/01/24 09:13:03;;;;;;;;;5.25;4.75;;;;;12.44;46.80;96335.91;4826307;28;104247;-78
2021/01/24 09:15:31;;;;;;;;;6.75;6.00;;;;;12.44;46.54;96335.91;4832652;28;104155;-78
2021/01/24 09:17:59;;;;;;;;;3.00;3.00;;;;;12.45;46.41;96342.97;4833362;28;102765;-78
2021/01/24 09:20:26;;;;;;;;;4.25;4.00;;;;;12.43;47.32;96336.19;4819080;28;102943;-78
2021/01/24 09:22:53;;;;;;;;;7.00;5.00;;;;;12.44;46.83;96352.19;4835209;28;104057;-78
2021/01/24 09:25:20;;;;;;;;;5.00;4.50;;;;;12.43;46.56;96347.84;4830457;28;102792;-79
2021/01/24 09:27:47;;;;;;;;;4.25;4.25;;;;;12.43;46.31;96353.25;4835663;28;102783;-79
2021/01/24 09:30:15;;;;;;;;;5.00;4.75;;;;;12.44;47.03;96351.38;4826561;28;103442;-78
2021/01/24 09:32:42;;;;;;;;;4.00;4.00;;;;;12.43;47.25;96347.84;4833454;28;104380;-78
2021/01/24 09:35:09;;;;;;;;;5.75;5.00;;;;;12.44;46.96;96352.19;4842874;28;103028;-78
2021/01/24 09:37:36;;;;;;;;;3.75;3.25;;;;;12.44;46.62;96360.31;4828365;28;103100;-78
2021/01/24 09:40:05;;;;;;;;;4.50;4.00;;;;;12.43;46.61;96361.38;4836681;28;102948;-78
2021/01/24 09:42:31;;;;;;;;;8.25;5.25;;;;;12.43;47.21;96345.13;4834654;28;109677;-78
2021/01/24 09:44:58;;;;;;;;;4.00;4.00;;;;;12.43;46.79;96350.53;4828541;28;102974;-79
2021/01/24 09:47:25;;;;;;;;;6.00;6.00;;;;;12.43;46.83;96347.84;4821652;28;102966;-79
2021/01/24 09:49:52;;;;;;;;;5.00;5.00;;;;;12.43;46.93;96350.53;4829672;28;104155;-79
2021/01/24 09:52:19;;;;;;;;;4.75;4.50;;;;;12.43;46.51;96355.16;4832493;28;103740;-79
2021/01/24 09:54:45;;;;;;;;;7.00;4.00;;;;;12.43;46.90;96350.53;4827921;28;104662;-79
2021/01/24 09:57:12;;;;;;;;;5.25;4.50;;;;;12.42;47.29;96348.94;4830226;28;102945;-79
2021/01/24 09:59:39;;;;;;;;;3.75;3.00;;;;;12.42;46.49;96348.94;4833065;28;104466;-79
2021/01/24 10:02:06;;;;;;;;;4.00;4.00;;;;;12.43;46.55;96345.13;4829972;28;104505;-79
2021/01/24 10:04:32;;;;;;;;;4.00;4.00;;;;;12.42;46.33;96354.38;4835682;28;102794;-79
2021/01/24 10:06:59;;;;;;;;;4.75;4.00;;;;;12.42;46.36;96357.06;4825794;28;102904;-79
2021/01/24 10:09:26;;;;;;;;;6.00;5.00;;;;;12.42;46.45;96348.13;4829400;28;102977;-79
2021/01/24 10:11:53;;;;;;;;;4.25;4.25;;;;;12.43;47.00;96349.72;4832857;28;104599;-79
2021/01/24 10:14:19;;;;;;;;;10.00;4.50;;;;;12.43;46.50;96358.69;4825412;28;103059;-80
2021/01/24 10:16:46;;;;;;;;;4.75;4.00;;;;;12.42;46.60;96361.69;4831574;28;102944;-79
2021/01/24 10:19:13;;;;;;;;;7.75;5.00;;;;;12.42;46.93;96354.38;4831856;28;104739;-79
2021/01/24 10:21:40;;;;;;;;;4.00;4.00;;;;;12.44;46.60;96359.50;4830581;28;105677;-79
2021/01/24 10:24:07;;;;;;;;;6.50;4.25;;;;;12.42;46.58;96358.97;4834855;28;102864;-79
2021/01/24 10:26:35;;;;;;;;;6.00;5.50;;;;;12.43;46.93;96355.97;4828559;28;103035;-79
2021/01/24 10:29:02;;;;;;;;;6.75;4.00;;;;;12.43;47.06;96366.81;4830596;28;103124;-78
2021/01/24 10:31:29;;;;;;;;;6.25;4.00;;;;;12.42;46.64;96369.81;4823351;28;105608;-79
2021/01/24 10:33:59;;;;;;;;;5.00;5.00;;;;;12.42;46.82;96369.81;4823757;28;102942;-79
2021/01/24 10:36:26;;;;;;;;;5.75;5.75;;;;;12.43;46.45;96377.66;4812919;28;102922;-79
2021/01/24 10:38:53;;;;;;;;;6.00;3.00;;;;;12.43;47.05;96376.84;4814946;28;103115;-79
2021/01/24 10:41:20;;;;;;;;;5.00;4.00;;;;;12.43;47.02;96383.06;4809125;28;104167;-80
2021/01/24 10:43:47;;;;;;;;;6.00;5.00;;;;;12.42;47.30;96378.75;4809544;28;103846;-79
2021/01/24 10:46:31;;;;;;;;;5.50;5.25;;;;;12.43;46.95;96377.66;4808081;28;103670;-79
2021/01/24 10:48:59;;;;;;;;;6.25;4.50;;;;;12.43;46.48;96377.66;4786231;28;103956;-77
2021/01/24 10:51:26;;;;;;;;;1.00;0.00;;;;;12.42;46.65;96377.94;4802288;28;104320;-77
2021/01/24 10:53:53;;;;;;;;;5.25;4.25;;;;;12.43;46.75;96387.66;4803990;28;103889;-77
2021/01/24 10:56:19;;;;;;;;;9.00;5.25;;;;;12.42;46.51;96376.03;4801407;28;102736;-79
2021/01/24 10:58:46;;;;;;;;;6.50;5.75;;;;;12.42;46.75;96380.66;4810402;28;103159;-79
2021/01/24 11:01:13;;;;;;;;;5.50;5.00;;;;;12.42;46.74;96386.88;4799809;28;104253;-79
2021/01/24 11:03:40;;;;;;;;;7.00;5.00;;;;;12.49;46.50;96390.16;4801606;28;103246;-80
2021/01/24 11:06:07;;;;;;;;;9.25;7.00;;;;;12.58;47.00;96381.47;4807700;28;102906;-84
2021/01/24 11:08:34;;;;;;;;;7.00;4.25;;;;;12.68;47.76;96395.06;4797015;28;104616;-80
2021/01/24 11:11:00;;;;;;;;;5.75;4.75;;;;;12.76;47.91;96389.94;4802613;28;104157;-77
2021/01/24 11:13:27;;;;;;;;;3.00;3.00;;;;;12.83;48.35;96382.34;4806650;28;104600;-78
2021/01/24 11:15:53;;;;;;;;;7.25;4.75;;;;;12.92;49.02;96378.00;4805648;28;104593;-78
2021/01/24 11:18:20;;;;;;;;;5.75;5.25;;;;;12.94;48.82;96388.59;4803125;28;103016;-77
2021/01/24 11:20:47;;;;;;;;;4.75;4.75;;;;;12.92;47.65;96390.78;4792504;28;105050;-77
2021/01/24 11:23:15;;;;;;;;;7.00;5.00;;;;;12.90;47.81;96387.50;4784917;28;102966;-77
2021/01/24 11:25:43;;;;;;;;;6.75;6.00;;;;;12.87;47.69;96388.06;4765069;28;103009;-77
2021/01/24 11:28:11;;;;;;;;;6.25;5.25;;;;;12.83;47.76;96390.47;4772539;28;102925;-77
2021/01/24 11:30:39;;;;;;;;;6.00;5.00;;;;;12.82;48.24;96398.91;4762568;28;105537;-77
2021/01/24 11:33:05;;;;;;;;;8.25;4.75;;;;;12.74;48.40;96397.50;4747176;28;104070;-77